Latest Weather Observations for Mardie

IDW60801

Issued at 1:53 am WST Friday 22 February 2019 (issued every 10 minutes, with the page automatically refreshed every 10 minutes)

About weather observations | Map of weather stations | Latest weather observations for WA | Other Formats
Station Details ID: 005008 Name: MARDIE Lat: -21.19 Lon: 115.98 Height: 11.0 m
Data from the previous 72 hours. | See also: Recent months at Mardie
Date/Time
WST
Temp
°C
App
Temp
°C
Dew
Point
°C
Rel
Hum
%
Delta-T
°C
Wind Press
QNH
hPa
Press
MSL
hPa
Rain since
9am
mm
Dir  Spd
km/h
Gust
km/h
Spd
kts
Gust
kts
21/12:30pm 35.8 37.7 22.7 46 9.1 NNW 17 26 9 14 1010.3 1010.2 0.0
21/12:00pm 36.2 39.2 22.0 43 9.8 N 9 15 5 8 1010.5 1010.4 0.0
21/11:30am 36.1 39.7 22.3 45 9.5 NW 7 17 4 9 1010.8 1010.7 0.0
21/11:00am 36.1 38.9 20.8 41 10.3 NE 7 15 4 8 1011.2 1011.1 0.0
21/10:30am 34.3 37.4 21.4 47 8.7 ENE 7 13 4 7 1011.6 1011.5 0.0
21/10:00am 33.5 38.0 22.3 52 7.7 SE 2 6 1 3 1011.8 1011.7 0.0
21/09:30am 31.9 36.7 22.9 59 6.2 SSE 2 7 1 4 1011.9 1011.8 0.0
21/09:00am 30.5 35.0 23.7 67 4.7 SSE 6 13 3 7 1012.1 1012.0 0.0
21/08:30am 29.4 33.8 24.5 75 3.4 NNW 9 17 5 9 1012.1 1012.0 -
21/08:00am 28.2 33.9 25.0 83 2.2 N 4 9 2 5 1012.1 1012.0 -
21/07:30am 27.6 34.1 26.2 92 1.0 NNW 4 6 2 3 1011.8 1011.7 -
21/07:00am 26.8 33.7 26.8 100 0.0 NNW 4 4 2 2 1011.6 1011.5 -
21/06:30am 25.6 31.8 24.6 94 0.7 CALM 0 0 0 0 1011.5 1011.4 -
21/06:00am 25.8 32.3 25.1 96 0.5 CALM 0 0 0 0 1011.3 1011.2 -
21/05:30am 25.8 32.3 25.6 99 0.1 NNW 2 4 1 2 1011.1 1011.0 -
21/05:00am 25.8 31.7 25.3 97 0.3 NNW 4 6 2 3 1010.9 1010.8 -
21/04:30am 25.8 32.2 24.9 95 0.6 CALM 0 0 0 0 1010.8 1010.7 -
21/04:00am 26.2 33.1 25.7 97 0.4 CALM 0 0 0 0 1010.6 1010.5 -
21/03:30am 26.5 33.9 26.5 100 0.0 CALM 0 0 0 0 1010.7 1010.6 -
21/03:00am 26.6 33.0 26.6 100 0.0 NNW 6 6 3 3 1010.8 1010.7 -
21/02:30am 26.5 33.2 26.5 100 0.0 N 4 6 2 3 1010.7 1010.6 -
21/02:00am 26.7 33.9 26.7 100 0.0 N 2 4 1 2 1010.7 1010.6 -
21/01:30am 26.8 34.1 26.8 100 0.0 N 2 6 1 3 1010.9 1010.8 -
21/12:00am 27.7 32.6 25.3 87 1.7 NNE 9 - 5 - - 1011.0 -
 
Date/Time
WST
Temp
°C
App
Temp
°C
Dew
Point
°C
Rel
Hum
%
Delta-T
°C
Wind Press
QNH
hPa
Press
MSL
hPa
Rain since
9am
mm
Dir  Spd
km/h
Gust
km/h
Spd
kts
Gust
kts
20/11:30pm 27.8 31.4 25.0 85 2.0 NNE 15 20 8 11 1011.2 1011.1 0.0
20/11:00pm 27.8 30.5 24.8 84 2.1 NNE 19 26 10 14 1011.1 1011.0 0.0
20/10:30pm 28.1 30.6 24.5 81 2.5 NNE 19 24 10 13 1011.6 1011.5 0.0
20/10:00pm 28.2 30.4 24.2 79 2.8 NE 20 28 11 15 1011.4 1011.3 0.0
20/09:30pm 28.6 30.5 23.7 75 3.4 NE 20 26 11 14 1011.3 1011.2 0.0
20/09:00pm 28.9 32.6 23.3 72 3.8 NE 9 11 5 6 1011.3 1011.2 0.0
20/08:30pm 28.7 33.2 23.6 74 3.5 NNE 6 9 3 5 1011.0 1010.9 0.0
20/08:00pm 29.1 33.1 23.8 73 3.7 ENE 9 17 5 9 1011.1 1011.0 0.0
20/07:30pm 28.9 33.0 24.5 77 3.1 N 11 17 6 9 1009.6 1009.5 0.0
20/07:00pm 29.4 33.0 23.8 72 3.9 N 11 24 6 13 1009.1 1009.0 0.0
20/06:30pm 30.3 33.5 24.4 70 4.1 N 15 24 8 13 1008.7 1008.6 0.0
20/06:00pm 31.3 34.1 23.7 64 5.3 N 15 24 8 13 1008.3 1008.2 0.0
20/05:30pm 32.6 34.5 23.5 58 6.3 NNE 19 28 10 15 1008.5 1008.4 0.0
20/05:00pm 32.9 35.4 23.8 58 6.3 N 17 26 9 14 1008.1 1008.0 0.0
20/04:30pm 33.9 36.3 23.6 55 7.2 N 17 24 9 13 1007.9 1007.8 0.0
20/04:00pm 34.5 36.6 23.8 53 7.5 N 19 30 10 16 1007.8 1007.7 0.0
20/03:30pm 35.9 38.0 22.5 46 9.2 N 15 22 8 12 1007.8 1007.7 0.0
20/03:00pm 36.2 38.8 22.7 45 9.4 N 13 24 7 13 1007.8 1007.7 0.0
20/02:30pm 36.5 39.3 23.7 47 9.0 NNW 15 22 8 12 1008.2 1008.1 0.0
20/02:00pm 36.9 40.3 23.4 46 9.5 N 11 19 6 10 1008.4 1008.3 0.0
20/01:30pm 37.6 40.2 24.0 45 9.6 NW 17 28 9 15 1008.8 1008.7 0.0
20/01:00pm 36.7 39.6 23.9 47 9.0 NW 15 22 8 12 1009.0 1008.9 0.0
20/12:30pm 36.1 38.2 23.7 49 8.7 NW 19 26 10 14 1009.5 1009.4 0.0
20/12:00pm 35.9 39.0 24.2 51 8.2 NW 15 20 8 11 1009.9 1009.8 0.0
20/11:30am 36.2 38.7 23.1 47 9.1 NW 15 22 8 12 1010.2 1010.1 0.0
20/11:00am 36.2 39.6 22.0 43 9.8 NNE 7 15 4 8 1010.6 1010.5 0.0
20/10:30am 35.5 39.3 22.4 46 9.0 N 6 13 3 7 1010.7 1010.6 0.0
20/10:00am 34.0 37.4 22.7 51 7.8 NE 9 17 5 9 1010.9 1010.8 0.0
20/09:30am 32.5 36.3 23.4 58 6.3 NNE 9 17 5 9 1011.1 1011.0 0.0
20/09:00am 32.1 36.6 23.9 62 5.7 ENE 7 15 4 8 1011.0 1010.9 0.0
20/08:30am 30.7 36.0 24.4 69 4.4 ENE 4 7 2 4 1010.8 1010.7 0.0
20/08:00am 29.4 33.9 24.0 72 3.7 ENE 7 9 4 5 1010.9 1010.8 0.0
20/07:30am 29.3 33.0 19.9 57 6.2 CALM 0 0 0 0 1010.8 1010.7 0.0
20/07:00am 26.7 28.9 16.6 54 6.3 CALM 0 0 0 0 1010.5 1010.4 0.0
20/06:30am 25.1 26.3 16.0 57 5.5 ENE 4 6 2 3 1010.0 1009.9 0.0
20/06:00am 25.0 27.2 16.4 59 5.3 CALM 0 0 0 0 1009.7 1009.6 0.0
20/05:30am 25.4 28.0 17.6 62 4.9 CALM 0 0 0 0 1009.5 1009.4 0.0
20/05:00am 26.0 29.3 19.2 66 4.4 CALM 0 0 0 0 1009.4 1009.3 0.0
20/04:30am 27.1 29.3 19.7 64 4.8 E 7 9 4 5 1009.2 1009.1 0.0
20/04:00am 26.9 26.4 16.8 54 6.3 SE 15 33 8 18 1008.9 1008.8 0.0
20/03:30am 25.7 26.4 15.7 54 6.1 SW 6 7 3 4 1008.1 1008.0 0.0
20/03:00am 26.3 27.4 17.9 60 5.3 SW 9 9 5 5 1008.1 1008.0 0.0
20/02:30am 27.0 28.5 18.0 58 5.7 SW 7 9 4 5 1008.4 1008.3 0.0
20/02:00am 28.3 28.7 17.2 51 7.0 W 11 17 6 9 1008.4 1008.3 0.0
20/01:30am 28.9 29.9 18.7 54 6.6 W 11 15 6 8 1008.7 1008.6 0.0
20/01:00am 29.0 31.6 21.2 62 5.2 W 9 13 5 7 1008.8 1008.7 0.0
20/12:30am 28.7 32.5 22.4 68 4.3 NW 6 7 3 4 1008.9 1008.8 0.0
20/12:00am 29.6 33.1 22.8 67 4.6 WNW 9 13 5 7 1009.3 1009.2 0.0
 
Date/Time
WST
Temp
°C
App
Temp
°C
Dew
Point
°C
Rel
Hum
%
Delta-T
°C
Wind Press
QNH
hPa
Press
MSL
hPa
Rain since
9am
mm
Dir  Spd
km/h
Gust
km/h
Spd
kts
Gust
kts
19/11:30pm 29.3 32.9 23.0 69 4.3 NNW 9 15 5 8 1009.6 1009.5 0.0
19/11:00pm 29.4 34.1 23.4 70 4.1 N 4 6 2 3 1009.6 1009.5 0.0
19/10:30pm 29.8 34.6 23.5 69 4.3 NNE 4 9 2 5 1009.3 1009.2 0.0
19/10:00pm 30.3 34.1 22.7 64 5.2 NNE 7 11 4 6 1009.2 1009.1 0.0
19/09:30pm 30.6 34.6 22.7 62 5.4 N 6 11 3 6 1009.2 1009.1 0.0
19/09:00pm 31.4 33.3 22.1 57 6.3 ENE 15 44 8 24 1009.3 1009.2 0.0
19/08:30pm 31.8 34.5 22.2 56 6.5 WSW 11 37 6 20 1009.2 1009.1 0.0
19/08:00pm 31.1 33.2 22.4 60 5.9 WNW 15 20 8 11 1007.5 1007.4 0.0
19/07:30pm 30.9 32.1 22.2 59 5.9 WNW 19 26 10 14 1007.2 1007.1 0.0
19/07:00pm 31.1 31.6 21.9 58 6.2 WNW 22 32 12 17 1006.9 1006.8 0.0
19/06:30pm 31.8 30.9 20.7 51 7.4 WNW 26 37 14 20 1006.6 1006.5 0.0
19/06:00pm 32.5 31.1 20.4 49 8.1 WNW 28 37 15 20 1006.3 1006.2 0.0
19/05:30pm 33.7 31.6 19.7 43 9.3 WNW 30 39 16 21 1006.1 1006.0 0.0
19/05:00pm 33.5 30.9 19.9 44 9.0 WNW 33 43 18 23 1006.1 1006.0 0.0
19/04:30pm 33.5 31.1 19.9 44 9.0 WNW 32 43 17 23 1006.0 1005.9 0.0
19/04:00pm 34.4 32.7 21.4 46 8.8 WNW 32 39 17 21 1006.2 1006.1 0.0
19/03:30pm 35.1 33.4 21.4 45 9.3 WNW 32 37 17 20 1006.2 1006.1 0.0
19/03:00pm 36.3 34.6 20.5 39 10.7 WNW 30 37 16 20 1006.4 1006.3 0.0
19/02:30pm 36.6 35.1 19.5 36 11.4 WNW 26 35 14 19 1006.7 1006.6 0.0
19/02:00pm 36.2 34.8 20.4 39 10.6 WNW 28 37 15 20 1007.0 1006.9 0.0
19/01:30pm 35.8 33.7 19.7 39 10.7 WNW 30 35 16 19 1007.3 1007.2 0.0
19/01:00pm 36.4 35.1 19.8 37 11.1 WNW 26 35 14 19 1007.5 1007.4 0.0
19/12:30pm 36.3 35.5 19.3 37 11.3 WNW 22 33 12 18 1007.9 1007.8 0.0
19/12:00pm 37.1 36.2 19.1 35 12.0 WNW 22 28 12 15 1008.1 1008.0 0.0
19/11:30am 36.1 35.2 19.1 36 11.2 WNW 22 32 12 17 1008.4 1008.3 0.0
19/11:00am 36.9 37.0 18.4 33 12.2 W 15 22 8 12 1008.6 1008.5 0.0
19/10:30am 37.5 37.7 14.7 25 14.3 WSW 7 15 4 8 1008.8 1008.7 0.0
19/10:00am 36.0 35.8 14.6 27 13.3 SW 9 17 5 9 1009.0 1008.9 0.0
19/09:30am 34.3 34.5 15.7 32 11.7 WSW 9 17 5 9 1009.1 1009.0 0.0
19/09:00am 32.4 31.9 15.8 36 10.4 SSW 13 19 7 10 1009.0 1008.9 -
19/08:30am 30.5 30.2 16.5 43 8.8 SW 13 19 7 10 1009.0 1008.9 -
19/08:00am 28.8 29.5 17.0 49 7.4 SW 9 11 5 6 1008.9 1008.8 -
19/07:30am 27.3 27.8 17.5 55 6.2 WSW 11 15 6 8 1008.4 1008.3 -
19/07:00am 26.4 27.4 17.7 58 5.5 SW 9 13 5 7 1008.2 1008.1 -
19/06:30am 25.6 26.5 18.3 64 4.6 WSW 11 15 6 8 1007.8 1007.7 -
19/06:00am 25.6 26.5 18.5 65 4.5 WSW 11 13 6 7 1007.7 1007.6 -
19/05:30am 26.0 26.6 18.7 64 4.7 W 13 17 7 9 1007.6 1007.5 -
19/05:00am 26.6 27.2 18.5 61 5.2 WSW 13 17 7 9 1007.6 1007.5 -
19/04:30am 26.7 27.4 18.8 62 5.1 W 13 17 7 9 1007.5 1007.4 -
19/04:00am 26.6 27.4 18.2 60 5.3 W 11 17 6 9 1007.4 1007.3 -
19/03:30am 26.8 27.6 18.1 59 5.5 W 11 13 6 7 1007.3 1007.2 -
19/03:00am 27.1 27.7 17.6 56 6.0 W 11 15 6 8 1007.4 1007.3 0.0
19/02:30am 27.4 28.2 17.3 54 6.3 W 9 13 5 7 1007.4 1007.3 -
19/02:00am 27.3 28.4 17.2 54 6.3 W 7 9 4 5 1007.7 1007.6 -

Other formats

Comma delimited format used in spreadsheet applications
http://www.bom.gov.au/fwo/IDW60801/IDW60801.94306.axf

JavaScript Object Notation format (JSON) in row-major order
http://www.bom.gov.au/fwo/IDW60801/IDW60801.94306.json

Data quality

Most of these data are generated automatically and are frequently updated. Quality checks on data are not normally performed. It is possible for incorrect values to appear. Refer to information at About Latest Weather Observations and please check the disclaimer before using these data.